sensor_id;sensor_type;location;lat;lon;timestamp;pressure;altitude;pressure_sealevel;temperature;humidity
19150;BME280;9707;49.158;8.632;2023-04-19T00:02:00;101042.22;;;21.20;35.70
19150;BME280;9707;49.158;8.632;2023-04-19T00:04:26;101047.63;;;21.20;36.02
19150;BME280;9707;49.158;8.632;2023-04-19T00:06:51;101037.63;;;21.21;35.40
19150;BME280;9707;49.158;8.632;2023-04-19T00:09:16;101041.31;;;21.20;34.85
19150;BME280;9707;49.158;8.632;2023-04-19T00:11:42;101033.44;;;21.17;35.16
19150;BME280;9707;49.158;8.632;2023-04-19T00:14:07;101031.81;;;21.14;35.29
19150;BME280;9707;49.158;8.632;2023-04-19T00:16:32;101035.28;;;21.16;35.65
19150;BME280;9707;49.158;8.632;2023-04-19T00:18:58;101034.41;;;21.16;35.45
19150;BME280;9707;49.158;8.632;2023-04-19T00:21:23;101030.94;;;21.14;35.78
19150;BME280;9707;49.158;8.632;2023-04-19T00:23:48;101028.97;;;21.16;35.49
19150;BME280;9707;49.158;8.632;2023-04-19T00:26:13;101024.53;;;21.15;35.52
19150;BME280;9707;49.158;8.632;2023-04-19T00:28:40;101021.81;;;21.15;35.86
19150;BME280;9707;49.158;8.632;2023-04-19T00:31:05;101021.72;;;21.16;35.42
19150;BME280;9707;49.158;8.632;2023-04-19T00:33:31;101028.97;;;21.16;35.27
19150;BME280;9707;49.158;8.632;2023-04-19T00:35:57;101026.41;;;21.14;35.46
19150;BME280;9707;49.158;8.632;2023-04-19T00:38:22;101023.78;;;21.13;35.68
19150;BME280;9707;49.158;8.632;2023-04-19T00:40:47;101015.78;;;21.11;35.51
19150;BME280;9707;49.158;8.632;2023-04-19T00:43:17;101021.09;;;21.13;35.71
19150;BME280;9707;49.158;8.632;2023-04-19T00:45:43;101016.50;;;21.13;35.48
19150;BME280;9707;49.158;8.632;2023-04-19T00:48:08;101019.22;;;21.13;35.61
19150;BME280;9707;49.158;8.632;2023-04-19T00:50:34;101028.22;;;21.14;35.59
19150;BME280;9707;49.158;8.632;2023-04-19T00:53:00;101026.50;;;21.13;35.87
19150;BME280;9707;49.158;8.632;2023-04-19T00:55:26;101030.94;;;21.14;35.88
19150;BME280;9707;49.158;8.632;2023-04-19T00:57:52;101021.81;;;21.15;35.97
19150;BME280;9707;49.158;8.632;2023-04-19T01:00:18;101023.56;;;21.16;35.89
19150;BME280;9707;49.158;8.632;2023-04-19T01:02:44;101027.16;;;21.16;35.96
19150;BME280;9707;49.158;8.632;2023-04-19T01:05:09;101028.97;;;21.16;35.85
19150;BME280;9707;49.158;8.632;2023-04-19T01:07:35;101026.41;;;21.14;35.84
19150;BME280;9707;49.158;8.632;2023-04-19T01:10:00;101032.66;;;21.15;35.86
19150;BME280;9707;49.158;8.632;2023-04-19T01:12:26;101034.41;;;21.16;35.86
19150;BME280;9707;49.158;8.632;2023-04-19T01:14:51;101026.41;;;21.14;36.00
19150;BME280;9707;49.158;8.632;2023-04-19T01:17:17;101031.69;;;21.16;36.19
19150;BME280;9707;49.158;8.632;2023-04-19T01:19:43;101028.97;;;21.16;36.04
19150;BME280;9707;49.158;8.632;2023-04-19T01:22:08;101022.72;;;21.15;36.21
19150;BME280;9707;49.158;8.632;2023-04-19T01:24:34;101025.31;;;21.17;36.18
19150;BME280;9707;49.158;8.632;2023-04-19T01:26:59;101027.03;;;21.18;35.65
19150;BME280;9707;49.158;8.632;2023-04-19T01:29:26;101018.13;;;21.16;36.05
19150;BME280;9707;49.158;8.632;2023-04-19T01:31:51;101016.41;;;21.15;36.05
19150;BME280;9707;49.158;8.632;2023-04-19T01:34:18;101018.13;;;21.16;35.99
19150;BME280;9707;49.158;8.632;2023-04-19T01:36:43;101006.44;;;21.15;35.93
19150;BME280;9707;49.158;8.632;2023-04-19T01:39:09;101008.19;;;21.16;35.98
19150;BME280;9707;49.158;8.632;2023-04-19T01:41:35;101009.06;;;21.17;35.79
19150;BME280;9707;49.158;8.632;2023-04-19T01:44:00;101003.63;;;21.17;35.22
19150;BME280;9707;49.158;8.632;2023-04-19T01:46:25;100996.72;;;21.13;34.93
19150;BME280;9707;49.158;8.632;2023-04-19T01:48:50;100992.47;;;21.09;35.22
19150;BME280;9707;49.158;8.632;2023-04-19T01:51:16;100997.00;;;21.08;35.14
19150;BME280;9707;49.158;8.632;2023-04-19T01:53:41;100994.44;;;21.07;35.16
19150;BME280;9707;49.158;8.632;2023-04-19T01:56:06;100994.53;;;21.05;35.69
19150;BME280;9707;49.158;8.632;2023-04-19T01:58:32;100988.25;;;21.05;35.26
19150;BME280;9707;49.158;8.632;2023-04-19T02:00:57;100977.66;;;21.02;35.50
19150;BME280;9707;49.158;8.632;2023-04-19T02:03:22;100980.47;;;21.00;35.11
19150;BME280;9707;49.158;8.632;2023-04-19T02:05:47;100972.34;;;21.00;35.26
19150;BME280;9707;49.158;8.632;2023-04-19T02:08:13;100976.88;;;21.00;35.30
19150;BME280;9707;49.158;8.632;2023-04-19T02:10:38;100971.56;;;20.98;35.56
19150;BME280;9707;49.158;8.632;2023-04-19T02:13:03;100971.47;;;21.00;35.61
19150;BME280;9707;49.158;8.632;2023-04-19T02:15:29;100972.44;;;20.99;35.46
19150;BME280;9707;49.158;8.632;2023-04-19T02:17:54;100967.03;;;20.99;35.43
19150;BME280;9707;49.158;8.632;2023-04-19T02:20:19;100964.44;;;20.97;35.56
19150;BME280;9707;49.158;8.632;2023-04-19T02:22:45;100965.31;;;20.98;35.67
19150;BME280;9707;49.158;8.632;2023-04-19T02:25:12;100964.31;;;20.99;35.88
19150;BME280;9707;49.158;8.632;2023-04-19T02:27:37;100965.06;;;21.01;35.98
19150;BME280;9707;49.158;8.632;2023-04-19T02:30:03;100963.25;;;21.01;36.16
19150;BME280;9707;49.158;8.632;2023-04-19T02:32:28;100964.13;;;21.02;36.20
19150;BME280;9707;49.158;8.632;2023-04-19T02:34:53;100964.84;;;21.04;36.15
19150;BME280;9707;49.158;8.632;2023-04-19T02:37:18;100964.84;;;21.04;35.58
19150;BME280;9707;49.158;8.632;2023-04-19T02:39:44;100957.72;;;21.03;35.42
19150;BME280;9707;49.158;8.632;2023-04-19T02:42:10;100969.63;;;21.00;35.17
19150;BME280;9707;49.158;8.632;2023-04-19T02:44:35;100969.75;;;20.99;35.55
19150;BME280;9707;49.158;8.632;2023-04-19T02:47:00;100963.44;;;20.98;36.03
19150;BME280;9707;49.158;8.632;2023-04-19T02:49:25;100961.63;;;20.99;35.81
19150;BME280;9707;49.158;8.632;2023-04-19T02:51:51;100952.59;;;20.98;35.81
19150;BME280;9707;49.158;8.632;2023-04-19T02:54:17;100957.19;;;20.98;35.83
19150;BME280;9707;49.158;8.632;2023-04-19T02:56:42;100960.88;;;20.97;35.48
19150;BME280;9707;49.158;8.632;2023-04-19T02:59:07;100951.97;;;20.95;35.54
19150;BME280;9707;49.158;8.632;2023-04-19T03:01:32;100952.97;;;20.94;35.85
19150;BME280;9707;49.158;8.632;2023-04-19T03:03:58;100945.81;;;20.93;36.11
19150;BME280;9707;49.158;8.632;2023-04-19T03:06:23;100949.38;;;20.93;36.00
19150;BME280;9707;49.158;8.632;2023-04-19T03:08:48;100953.84;;;20.94;35.98
19150;BME280;9707;49.158;8.632;2023-04-19T03:11:17;100949.25;;;20.95;35.71
19150;BME280;9707;49.158;8.632;2023-04-19T03:13:45;100943.84;;;20.95;35.79
19150;BME280;9707;49.158;8.632;2023-04-19T03:16:11;100946.56;;;20.95;35.51
19150;BME280;9707;49.158;8.632;2023-04-19T03:18:36;100941.25;;;20.93;35.91
19150;BME280;9707;49.158;8.632;2023-04-19T03:21:02;100939.41;;;20.94;36.10
19150;BME280;9707;49.158;8.632;2023-04-19T03:23:28;100943.84;;;20.95;36.09
19150;BME280;9707;49.158;8.632;2023-04-19T03:25:53;100940.16;;;20.96;35.96
19150;BME280;9707;49.158;8.632;2023-04-19T03:28:18;100941.03;;;20.96;36.19
19150;BME280;9707;49.158;8.632;2023-04-19T03:30:47;100935.63;;;20.96;35.77
19150;BME280;9707;49.158;8.632;2023-04-19T03:33:12;100936.50;;;20.97;35.97
19150;BME280;9707;49.158;8.632;2023-04-19T03:35:37;100933.78;;;20.97;35.79
19150;BME280;9707;49.158;8.632;2023-04-19T03:38:03;100931.94;;;20.97;36.10
19150;BME280;9707;49.158;8.632;2023-04-19T03:40:31;100930.09;;;20.98;35.59
19150;BME280;9707;49.158;8.632;2023-04-19T03:42:56;100931.09;;;20.97;35.93
19150;BME280;9707;49.158;8.632;2023-04-19T03:45:22;100927.50;;;20.96;35.48
19150;BME280;9707;49.158;8.632;2023-04-19T03:47:47;100919.47;;;20.95;35.68
19150;BME280;9707;49.158;8.632;2023-04-19T03:50:12;100924.03;;;20.94;35.85
19150;BME280;9707;49.158;8.632;2023-04-19T03:52:38;100924.03;;;20.94;35.66
19150;BME280;9707;49.158;8.632;2023-04-19T03:55:03;100920.47;;;20.94;35.86
19150;BME280;9707;49.158;8.632;2023-04-19T03:57:29;100919.47;;;20.95;36.01
19150;BME280;9707;49.158;8.632;2023-04-19T03:59:54;100924.03;;;20.94;35.91
19150;BME280;9707;49.158;8.632;2023-04-19T04:02:19;100923.16;;;20.94;35.62
19150;BME280;9707;49.158;8.632;2023-04-19T04:04:44;100918.72;;;20.93;35.99
19150;BME280;9707;49.158;8.632;2023-04-19T04:07:10;100916.88;;;20.93;36.16
19150;BME280;9707;49.158;8.632;2023-04-19T04:09:35;100916.03;;;20.93;35.81
19150;BME280;9707;49.158;8.632;2023-04-19T04:12:00;100913.31;;;20.93;35.62
19150;BME280;9707;49.158;8.632;2023-04-19T04:14:27;100918.72;;;20.93;35.25
19150;BME280;9707;49.158;8.632;2023-04-19T04:16:52;100916.13;;;20.91;35.57
19150;BME280;9707;49.158;8.632;2023-04-19T04:19:17;100913.53;;;20.90;35.52
19150;BME280;9707;49.158;8.632;2023-04-19T04:21:43;100918.94;;;20.90;35.48
19150;BME280;9707;49.158;8.632;2023-04-19T04:24:08;100910.03;;;20.88;35.72
19150;BME280;9707;49.158;8.632;2023-04-19T04:26:34;100911.88;;;20.87;35.66
19150;BME280;9707;49.158;8.632;2023-04-19T04:29:03;100921.72;;;20.88;35.81
19150;BME280;9707;49.158;8.632;2023-04-19T04:31:29;100922.69;;;20.87;36.05
19150;BME280;9707;49.158;8.632;2023-04-19T04:33:55;100919.88;;;20.89;36.24
19150;BME280;9707;49.158;8.632;2023-04-19T04:36:21;100924.34;;;20.90;36.23
19150;BME280;9707;49.158;8.632;2023-04-19T04:38:46;100922.53;;;20.90;35.88
19150;BME280;9707;49.158;8.632;2023-04-19T04:41:11;100923.38;;;20.91;35.67
19150;BME280;9707;49.158;8.632;2023-04-19T04:43:37;100912.53;;;20.91;35.89
19150;BME280;9707;49.158;8.632;2023-04-19T04:46:03;100920.66;;;20.91;35.97
19150;BME280;9707;49.158;8.632;2023-04-19T04:48:29;100922.44;;;20.92;36.06
19150;BME280;9707;49.158;8.632;2023-04-19T04:50:55;100923.38;;;20.91;35.66
19150;BME280;9707;49.158;8.632;2023-04-19T04:53:21;100922.59;;;20.89;35.53
19150;BME280;9707;49.158;8.632;2023-04-19T04:55:46;100916.44;;;20.87;35.80
19150;BME280;9707;49.158;8.632;2023-04-19T04:58:11;100923.69;;;20.86;35.67
19150;BME280;9707;49.158;8.632;2023-04-19T05:00:36;100918.38;;;20.85;35.58
19150;BME280;9707;49.158;8.632;2023-04-19T05:03:02;100924.78;;;20.84;36.13
19150;BME280;9707;49.158;8.632;2023-04-19T05:05:27;100926.50;;;20.85;36.17
19150;BME280;9707;49.158;8.632;2023-04-19T05:07:52;100929.22;;;20.85;35.85
19150;BME280;9707;49.158;8.632;2023-04-19T05:10:17;100919.25;;;20.85;36.13
19150;BME280;9707;49.158;8.632;2023-04-19T05:12:43;100929.09;;;20.86;36.44
19150;BME280;9707;49.158;8.632;2023-04-19T05:15:08;100929.97;;;20.87;36.02
19150;BME280;9707;49.158;8.632;2023-04-19T05:17:33;100926.28;;;20.88;36.27
19150;BME280;9707;49.158;8.632;2023-04-19T05:19:59;100936.13;;;20.89;35.98
19150;BME280;9707;49.158;8.632;2023-04-19T05:22:24;100939.75;;;20.89;36.16
19150;BME280;9707;49.158;8.632;2023-04-19T05:24:50;100933.44;;;20.89;36.08
19150;BME280;9707;49.158;8.632;2023-04-19T05:27:15;100938.84;;;20.89;36.30
19150;BME280;9707;49.158;8.632;2023-04-19T05:29:41;100939.75;;;20.89;36.20
19150;BME280;9707;49.158;8.632;2023-04-19T05:32:06;100940.59;;;20.90;36.23
19150;BME280;9707;49.158;8.632;2023-04-19T05:34:32;100941.56;;;20.89;36.13
19150;BME280;9707;49.158;8.632;2023-04-19T05:36:57;100935.25;;;20.88;36.12
19150;BME280;9707;49.158;8.632;2023-04-19T05:39:23;100931.72;;;20.88;35.71
19150;BME280;9707;49.158;8.632;2023-04-19T05:41:48;100932.69;;;20.87;36.03
19150;BME280;9707;49.158;8.632;2023-04-19T05:44:13;100933.63;;;20.86;35.77
19150;BME280;9707;49.158;8.632;2023-04-19T05:46:38;100937.34;;;20.85;35.48
19150;BME280;9707;49.158;8.632;2023-04-19T05:49:04;100940.16;;;20.83;35.57
19150;BME280;9707;49.158;8.632;2023-04-19T05:51:29;100935.81;;;20.81;35.61
19150;BME280;9707;49.158;8.632;2023-04-19T05:53:55;100940.59;;;20.77;34.97
19150;BME280;9707;49.158;8.632;2023-04-19T05:56:21;100940.84;;;20.74;34.63
19150;BME280;9707;49.158;8.632;2023-04-19T05:58:46;100946.56;;;20.70;34.67
19150;BME280;9707;49.158;8.632;2023-04-19T06:01:11;100943.22;;;20.66;34.63
19150;BME280;9707;49.158;8.632;2023-04-19T06:03:37;100951.53;;;20.63;34.75
19150;BME280;9707;49.158;8.632;2023-04-19T06:06:03;100941.94;;;20.59;35.02
19150;BME280;9707;49.158;8.632;2023-04-19T06:08:28;100938.34;;;20.59;35.71
19150;BME280;9707;49.158;8.632;2023-04-19T06:10:53;100931.09;;;20.59;34.87
19150;BME280;9707;49.158;8.632;2023-04-19T06:13:20;100939.31;;;20.58;34.84
19150;BME280;9707;49.158;8.632;2023-04-19T06:15:46;100932.38;;;20.54;34.63
19150;BME280;9707;49.158;8.632;2023-04-19T06:18:11;100936.91;;;20.53;34.76
19150;BME280;9707;49.158;8.632;2023-04-19T06:20:37;100943.41;;;20.51;35.02
19150;BME280;9707;49.158;8.632;2023-04-19T06:23:03;100946.13;;;20.51;35.13
19150;BME280;9707;49.158;8.632;2023-04-19T06:25:31;100946.25;;;20.49;35.07
19150;BME280;9707;49.158;8.632;2023-04-19T06:27:57;100944.53;;;20.48;35.13
19150;BME280;9707;49.158;8.632;2023-04-19T06:30:22;100948.19;;;20.47;35.12
19150;BME280;9707;49.158;8.632;2023-04-19T06:32:47;100945.63;;;20.46;35.19
19150;BME280;9707;49.158;8.632;2023-04-19T06:35:13;100943.00;;;20.44;35.26
19150;BME280;9707;49.158;8.632;2023-04-19T06:37:39;100953.06;;;20.42;35.27
19150;BME280;9707;49.158;8.632;2023-04-19T06:40:04;100952.22;;;20.42;35.85
19150;BME280;9707;49.158;8.632;2023-04-19T06:42:34;100945.81;;;20.43;35.80
19150;BME280;9707;49.158;8.632;2023-04-19T06:45:00;100944.75;;;20.45;35.59
19150;BME280;9707;49.158;8.632;2023-04-19T06:47:26;100947.34;;;20.47;35.80
19150;BME280;9707;49.158;8.632;2023-04-19T06:49:51;100944.41;;;20.50;35.84
19150;BME280;9707;49.158;8.632;2023-04-19T06:52:16;100938.00;;;20.51;35.89
19150;BME280;9707;49.158;8.632;2023-04-19T06:54:41;100945.19;;;20.52;35.68
19150;BME280;9707;49.158;8.632;2023-04-19T06:57:10;100943.22;;;20.54;35.67
19150;BME280;9707;49.158;8.632;2023-04-19T06:59:36;100942.34;;;20.53;36.03
19150;BME280;9707;49.158;8.632;2023-04-19T07:02:03;100941.16;;;20.57;35.65
19150;BME280;9707;49.158;8.632;2023-04-19T07:04:29;100936.72;;;20.56;35.56
19150;BME280;9707;49.158;8.632;2023-04-19T07:06:54;100933.03;;;20.57;35.72
19150;BME280;9707;49.158;8.632;2023-04-19T07:09:19;100941.03;;;20.59;36.11
19150;BME280;9707;49.158;8.632;2023-04-19T07:11:44;100937.34;;;20.60;35.74
19150;BME280;9707;49.158;8.632;2023-04-19T07:14:11;100935.44;;;20.62;36.25
19150;BME280;9707;49.158;8.632;2023-04-19T07:16:36;100940.59;;;20.65;35.66
19150;BME280;9707;49.158;8.632;2023-04-19T07:19:02;100933.25;;;20.67;35.58
19150;BME280;9707;49.158;8.632;2023-04-19T07:21:27;100937.78;;;20.66;35.51
19150;BME280;9707;49.158;8.632;2023-04-19T07:23:56;100927.84;;;20.67;35.81
19150;BME280;9707;49.158;8.632;2023-04-19T07:26:22;100934.97;;;20.68;35.80
19150;BME280;9707;49.158;8.632;2023-04-19T07:28:47;100932.19;;;20.69;35.26
19150;BME280;9707;49.158;8.632;2023-04-19T07:31:16;100920.47;;;20.69;35.53
19150;BME280;9707;49.158;8.632;2023-04-19T07:33:42;100923.19;;;20.69;35.79
19150;BME280;9707;49.158;8.632;2023-04-19T07:36:08;100929.34;;;20.71;35.45
19150;BME280;9707;49.158;8.632;2023-04-19T07:38:33;100915.78;;;20.71;35.61
19150;BME280;9707;49.158;8.632;2023-04-19T07:40:58;100918.41;;;20.72;35.86
19150;BME280;9707;49.158;8.632;2023-04-19T07:43:24;100918.28;;;20.74;35.90
19150;BME280;9707;49.158;8.632;2023-04-19T07:45:50;100918.09;;;20.77;35.64
19150;BME280;9707;49.158;8.632;2023-04-19T07:48:15;100912.53;;;20.78;35.65
19150;BME280;9707;49.158;8.632;2023-04-19T07:50:40;100912.66;;;20.77;35.64
19150;BME280;9707;49.158;8.632;2023-04-19T07:53:05;100907.13;;;20.78;35.34
19150;BME280;9707;49.158;8.632;2023-04-19T07:55:31;100902.59;;;20.79;35.64
19150;BME280;9707;49.158;8.632;2023-04-19T07:57:56;100912.31;;;20.81;35.40
19150;BME280;9707;49.158;8.632;2023-04-19T08:00:21;100908.53;;;20.84;35.96
19150;BME280;9707;49.158;8.632;2023-04-19T08:02:48;100908.31;;;20.87;35.51
19150;BME280;9707;49.158;8.632;2023-04-19T08:05:14;100902.91;;;20.87;35.56
19150;BME280;9707;49.158;8.632;2023-04-19T08:07:44;100904.56;;;20.89;35.64
19150;BME280;9707;49.158;8.632;2023-04-19T08:10:10;100905.19;;;20.93;35.49
19150;BME280;9707;49.158;8.632;2023-04-19T08:12:36;100903.31;;;20.93;35.14
19150;BME280;9707;49.158;8.632;2023-04-19T08:15:05;100900.75;;;20.92;35.55
19150;BME280;9707;49.158;8.632;2023-04-19T08:17:31;100901.50;;;20.94;35.40
19150;BME280;9707;49.158;8.632;2023-04-19T08:19:57;100897.91;;;20.93;35.37
19150;BME280;9707;49.158;8.632;2023-04-19T08:22:22;100900.63;;;20.93;35.35
19150;BME280;9707;49.158;8.632;2023-04-19T08:24:50;100898.78;;;20.94;35.14
19150;BME280;9707;49.158;8.632;2023-04-19T08:27:16;100905.94;;;20.95;35.32
19150;BME280;9707;49.158;8.632;2023-04-19T08:29:42;100896.81;;;20.96;35.36
19150;BME280;9707;49.158;8.632;2023-04-19T08:32:07;100900.41;;;20.96;35.34
19150;BME280;9707;49.158;8.632;2023-04-19T08:34:36;100902.13;;;20.97;35.42
19150;BME280;9707;49.158;8.632;2023-04-19T08:37:02;100908.31;;;20.99;35.42
19150;BME280;9707;49.158;8.632;2023-04-19T08:39:27;100901.91;;;21.00;35.57
19150;BME280;9707;49.158;8.632;2023-04-19T08:41:54;100901.81;;;21.02;35.49
19150;BME280;9707;49.158;8.632;2023-04-19T08:44:21;100889.00;;;21.04;35.83
19150;BME280;9707;49.158;8.632;2023-04-19T08:46:48;100894.22;;;21.07;36.06
19150;BME280;9707;49.158;8.632;2023-04-19T08:49:15;100886.72;;;21.10;35.85
19150;BME280;9707;49.158;8.632;2023-04-19T08:51:41;100885.53;;;21.14;35.95
19150;BME280;9707;49.158;8.632;2023-04-19T08:54:08;100879.84;;;21.17;35.91
19150;BME280;9707;49.158;8.632;2023-04-19T08:56:33;100891.31;;;21.21;35.86
19150;BME280;9707;49.158;8.632;2023-04-19T08:58:59;100885.91;;;21.21;35.96
19150;BME280;9707;49.158;8.632;2023-04-19T09:01:24;100878.53;;;21.23;36.08
19150;BME280;9707;49.158;8.632;2023-04-19T09:03:49;100874.84;;;21.24;35.93
19150;BME280;9707;49.158;8.632;2023-04-19T09:06:15;100885.44;;;21.27;35.96
19150;BME280;9707;49.158;8.632;2023-04-19T09:08:41;100870.06;;;21.27;35.94
19150;BME280;9707;49.158;8.632;2023-04-19T09:11:06;100875.38;;;21.29;35.92
19150;BME280;9707;49.158;8.632;2023-04-19T09:13:32;100876.09;;;21.31;35.96
19150;BME280;9707;49.158;8.632;2023-04-19T09:16:00;100873.19;;;21.34;35.88
19150;BME280;9707;49.158;8.632;2023-04-19T09:18:26;100858.63;;;21.35;35.58
19150;BME280;9707;49.158;8.632;2023-04-19T09:20:51;100866.78;;;21.35;35.34
19150;BME280;9707;49.158;8.632;2023-04-19T09:23:22;100863.94;;;21.36;35.36
19150;BME280;9707;49.158;8.632;2023-04-19T09:25:59;100861.13;;;21.38;35.53
19150;BME280;9707;49.158;8.632;2023-04-19T09:28:26;100855.72;;;21.38;35.25
19150;BME280;9707;49.158;8.632;2023-04-19T09:30:52;100856.34;;;21.41;35.32
19150;BME280;9707;49.158;8.632;2023-04-19T09:33:36;100858.94;;;21.43;35.27
19150;BME280;9707;49.158;8.632;2023-04-19T09:36:04;100853.50;;;21.43;35.22
19150;BME280;9707;49.158;8.632;2023-04-19T09:38:29;100847.84;;;21.46;35.15
19150;BME280;9707;49.158;8.632;2023-04-19T09:41:07;100842.19;;;21.49;35.42
19150;BME280;9707;49.158;8.632;2023-04-19T09:43:33;100837.50;;;21.51;35.25
19150;BME280;9707;49.158;8.632;2023-04-19T09:45:58;100832.84;;;21.53;35.00
19150;BME280;9707;49.158;8.632;2023-04-19T09:48:24;100823.75;;;21.54;34.96
19150;BME280;9707;49.158;8.632;2023-04-19T09:53:20;100821.75;;;21.56;34.40
19150;BME280;9707;49.158;8.632;2023-04-19T09:55:46;100819.03;;;21.56;34.20
19150;BME280;9707;49.158;8.632;2023-04-19T09:58:12;100816.34;;;21.56;34.62
19150;BME280;9707;49.158;8.632;2023-04-19T10:00:38;100819.81;;;21.58;34.18
19150;BME280;9707;49.158;8.632;2023-04-19T10:03:05;100819.81;;;21.58;34.19
19150;BME280;9707;49.158;8.632;2023-04-19T10:05:31;100810.69;;;21.59;34.57
19150;BME280;9707;49.158;8.632;2023-04-19T10:07:57;100805.00;;;21.62;34.48
19150;BME280;9707;49.158;8.632;2023-04-19T10:10:23;100810.22;;;21.65;34.15
19150;BME280;9707;49.158;8.632;2023-04-19T10:12:52;100806.50;;;21.66;33.90
19150;BME280;9707;49.158;8.632;2023-04-19T10:15:19;100807.28;;;21.68;33.80
19150;BME280;9707;49.158;8.632;2023-04-19T10:17:46;100807.06;;;21.71;34.31
19150;BME280;9707;49.158;8.632;2023-04-19T10:20:17;100798.69;;;21.74;33.88
19150;BME280;9707;49.158;8.632;2023-04-19T10:22:44;100796.72;;;21.76;34.35
19150;BME280;9707;49.158;8.632;2023-04-19T10:25:14;100793.88;;;21.77;33.77
19150;BME280;9707;49.158;8.632;2023-04-19T10:27:43;100798.44;;;21.77;33.73
19150;BME280;9707;49.158;8.632;2023-04-19T10:30:21;100794.88;;;21.76;33.56
19150;BME280;9707;49.158;8.632;2023-04-19T10:32:54;100795.88;;;21.75;33.71
19150;BME280;9707;49.158;8.632;2023-04-19T10:35:40;100788.69;;;21.74;33.67
19150;BME280;9707;49.158;8.632;2023-04-19T10:38:13;100795.88;;;21.75;33.86
19150;BME280;9707;49.158;8.632;2023-04-19T10:40:59;100799.41;;;21.76;33.95
19150;BME280;9707;49.158;8.632;2023-04-19T10:43:35;100784.38;;;21.72;33.82
19150;BME280;9707;49.158;8.632;2023-04-19T10:46:05;100785.13;;;21.74;34.28
19150;BME280;9707;49.158;8.632;2023-04-19T10:48:32;100790.28;;;21.77;34.12
19150;BME280;9707;49.158;8.632;2023-04-19T10:51:03;100779.34;;;21.78;33.95
19150;BME280;9707;49.158;8.632;2023-04-19T10:56:13;100777.72;;;21.76;34.26
19150;BME280;9707;49.158;8.632;2023-04-19T11:01:41;100769.59;;;21.76;34.24
19150;BME280;9707;49.158;8.632;2023-04-19T11:09:36;100758.63;;;21.77;34.00
19150;BME280;9707;49.158;8.632;2023-04-19T11:12:04;100753.31;;;21.76;34.21
19150;BME280;9707;49.158;8.632;2023-04-19T11:14:36;100753.31;;;21.76;34.33
19150;BME280;9707;49.158;8.632;2023-04-19T11:17:20;100749.63;;;21.77;34.40
19150;BME280;9707;49.158;8.632;2023-04-19T11:19:59;100747.91;;;21.76;34.15
19150;BME280;9707;49.158;8.632;2023-04-19T11:22:31;100747.16;;;21.74;33.95
19150;BME280;9707;49.158;8.632;2023-04-19T11:25:23;100749.13;;;21.72;34.35
19150;BME280;9707;49.158;8.632;2023-04-19T11:27:50;100748.38;;;21.70;34.41
19150;BME280;9707;49.158;8.632;2023-04-19T11:30:20;100738.63;;;21.67;34.57
19150;BME280;9707;49.158;8.632;2023-04-19T11:32:56;100742.31;;;21.66;34.62
19150;BME280;9707;49.158;8.632;2023-04-19T11:35:23;100741.44;;;21.66;34.80
19150;BME280;9707;49.158;8.632;2023-04-19T11:37:49;100748.84;;;21.64;34.96
19150;BME280;9707;49.158;8.632;2023-04-19T11:40:19;100747.47;;;21.58;35.16
19150;BME280;9707;49.158;8.632;2023-04-19T11:42:45;100732.41;;;21.54;35.17
19150;BME280;9707;49.158;8.632;2023-04-19T11:45:11;100742.63;;;21.51;35.17
19150;BME280;9707;49.158;8.632;2023-04-19T11:47:49;100732.06;;;21.48;35.45
19150;BME280;9707;49.158;8.632;2023-04-19T11:53:16;100730.31;;;21.47;35.45
19150;BME280;9707;49.158;8.632;2023-04-19T11:55:43;100728.34;;;21.49;35.30
19150;BME280;9707;49.158;8.632;2023-04-19T11:58:28;100726.63;;;21.48;35.35
19150;BME280;9707;49.158;8.632;2023-04-19T12:01:00;100729.34;;;21.48;35.74
19150;BME280;9707;49.158;8.632;2023-04-19T12:03:26;100730.06;;;21.50;35.60
19150;BME280;9707;49.158;8.632;2023-04-19T12:05:53;100720.94;;;21.51;35.61
19150;BME280;9707;49.158;8.632;2023-04-19T12:08:28;100719.00;;;21.53;35.29
19150;BME280;9707;49.158;8.632;2023-04-19T12:10:56;100720.09;;;21.50;35.52
19150;BME280;9707;49.158;8.632;2023-04-19T12:13:24;100721.94;;;21.50;35.53
19150;BME280;9707;49.158;8.632;2023-04-19T12:15:49;100719.22;;;21.50;35.48
19150;BME280;9707;49.158;8.632;2023-04-19T12:18:15;100719.22;;;21.50;35.48
19150;BME280;9707;49.158;8.632;2023-04-19T12:20:45;100721.94;;;21.50;35.44
19150;BME280;9707;49.158;8.632;2023-04-19T12:23:12;100714.91;;;21.47;35.62
19150;BME280;9707;49.158;8.632;2023-04-19T12:25:42;100707.88;;;21.45;35.74
19150;BME280;9707;49.158;8.632;2023-04-19T12:28:07;100713.31;;;21.45;35.74
19150;BME280;9707;49.158;8.632;2023-04-19T12:30:34;100710.59;;;21.45;36.22
19150;BME280;9707;49.158;8.632;2023-04-19T12:33:00;100709.00;;;21.42;36.40
19150;BME280;9707;49.158;8.632;2023-04-19T12:35:26;100719.72;;;21.44;36.69
19150;BME280;9707;49.158;8.632;2023-04-19T12:37:53;100715.50;;;21.40;37.25
19150;BME280;9707;49.158;8.632;2023-04-19T12:40:19;100715.00;;;21.35;37.46
19150;BME280;9707;49.158;8.632;2023-04-19T12:42:45;100717.00;;;21.33;37.68
19150;BME280;9707;49.158;8.632;2023-04-19T12:45:11;100717.94;;;21.32;37.71
19150;BME280;9707;49.158;8.632;2023-04-19T12:47:38;100715.22;;;21.32;37.98
19150;BME280;9707;49.158;8.632;2023-04-19T12:50:03;100710.56;;;21.34;38.02
19150;BME280;9707;49.158;8.632;2023-04-19T12:52:29;100714.91;;;21.36;37.88
19150;BME280;9707;49.158;8.632;2023-04-19T12:54:54;100704.78;;;21.38;37.71
19150;BME280;9707;49.158;8.632;2023-04-19T12:57:19;100705.66;;;21.39;37.76
19150;BME280;9707;49.158;8.632;2023-04-19T12:59:44;100699.13;;;21.41;37.41
19150;BME280;9707;49.158;8.632;2023-04-19T13:02:10;100695.44;;;21.42;37.51
19150;BME280;9707;49.158;8.632;2023-04-19T13:04:35;100697.16;;;21.43;37.76
19150;BME280;9707;49.158;8.632;2023-04-19T13:07:00;100700.75;;;21.44;37.58
19150;BME280;9707;49.158;8.632;2023-04-19T13:09:27;100694.34;;;21.45;37.51
19150;BME280;9707;49.158;8.632;2023-04-19T13:11:56;100692.34;;;21.47;37.61
19150;BME280;9707;49.158;8.632;2023-04-19T13:14:22;100676.97;;;21.47;37.43